Time;durP1;ratioP1;P1;durP2;ratioP2;P2;SDS_P1;SDS_P2;PMS_P1;PMS_P2;Temp;Humidity;BMP_temperature;BMP_pressure;BME280_temperature;BME280_humidity;BME280_pressure;Samples;Min_cycle;Max_cycle;Signal;HPM_P1;HPM_P2
2022/08/17 00:00:39;;;;;;;14.47;12.80;;;18.90;99.90;18.50;99969;;;;586811;239;23096;-89
2022/08/17 00:03:08;;;;;;;15.00;13.40;;;18.90;99.90;18.40;99973;;;;593109;241;24066;-87
2022/08/17 00:05:35;;;;;;;13.90;12.50;;;18.80;99.90;18.40;99973;;;;585860;241;24043;-88
2022/08/17 00:08:06;;;;;;;16.00;13.10;;;18.80;99.90;18.40;99975;;;;565079;249;24133;-90
2022/08/17 00:10:34;;;;;;;15.60;12.83;;;18.80;99.90;18.40;99971;;;;564848;250;24113;-88
2022/08/17 00:12:59;;;;;;;17.97;12.93;;;18.90;99.90;18.40;99971;;;;585510;241;24098;-88
2022/08/17 00:15:27;;;;;;;18.90;12.80;;;18.90;99.90;18.40;99973;;;;584752;241;24066;-90
2022/08/17 00:17:55;;;;;;;13.93;12.53;;;18.90;99.90;18.40;99974;;;;565117;250;24117;-89
2022/08/17 00:20:24;;;;;;;14.60;12.20;;;18.90;99.90;18.40;99978;;;;565169;249;24097;-90
2022/08/17 00:23:04;;;;;;;15.27;13.67;;;18.90;99.90;18.40;99975;;;;585966;241;24063;-89
2022/08/17 00:25:36;;;;;;;13.80;12.20;;;18.80;99.90;18.40;99975;;;;575676;245;24071;-88
2022/08/17 00:28:01;;;;;;;15.33;13.50;;;18.80;99.90;18.40;99971;;;;565049;250;24166;-86
2022/08/17 00:30:28;;;;;;;14.67;12.20;;;18.80;99.90;18.40;99969;;;;565531;249;24104;-87
2022/08/17 00:32:59;;;;;;;15.07;12.40;;;18.80;99.90;18.40;99974;;;;565637;250;24103;-89
2022/08/17 00:35:27;;;;;;;16.33;12.83;;;18.80;99.90;18.40;99975;;;;573225;250;24122;-89
2022/08/17 00:37:55;;;;;;;18.73;12.83;;;18.80;99.90;18.40;99972;;;;564416;250;24114;-89
2022/08/17 00:40:20;;;;;;;15.47;11.47;;;18.80;99.90;18.30;99978;;;;585086;241;24094;-88
2022/08/17 00:42:48;;;;;;;15.70;12.50;;;18.80;99.90;18.40;99975;;;;585221;241;24049;-88
2022/08/17 00:45:19;;;;;;;17.93;12.37;;;18.70;99.90;18.30;99975;;;;585329;241;24081;-88
2022/08/17 00:47:44;;;;;;;14.03;12.53;;;18.80;99.90;18.40;99971;;;;564498;250;24186;-88
2022/08/17 00:50:13;;;;;;;16.47;12.67;;;18.80;99.90;18.40;99979;;;;564536;250;24095;-89
2022/08/17 00:52:48;;;;;;;16.33;12.73;;;18.80;99.90;18.30;99983;;;;585301;241;24146;-88
2022/08/17 00:55:16;;;;;;;20.53;13.03;;;18.80;99.90;18.30;99973;;;;585836;241;24057;-86
2022/08/17 00:57:45;;;;;;;15.37;12.33;;;18.80;99.90;18.30;99971;;;;594485;241;24055;-88
2022/08/17 01:00:17;;;;;;;13.57;11.23;;;18.70;99.90;18.30;99978;;;;585208;241;24149;-87
2022/08/17 01:02:45;;;;;;;14.47;12.27;;;18.70;99.90;18.30;99982;;;;572700;246;24179;-87
2022/08/17 01:05:18;;;;;;;14.93;12.00;;;18.70;99.90;18.30;99980;;;;564723;250;24108;-86
2022/08/17 01:07:49;;;;;;;15.90;12.70;;;18.70;99.90;18.20;99976;;;;585404;241;24054;-87
2022/08/17 01:10:14;;;;;;;14.97;11.73;;;18.70;99.90;18.30;99977;;;;564590;249;24111;-88
2022/08/17 01:12:46;;;;;;;16.47;13.03;;;18.70;99.90;18.30;99982;;;;566009;249;24101;-87
2022/08/17 01:15:15;;;;;;;16.37;12.93;;;18.70;99.90;18.30;99982;;;;577707;244;24180;-88
2022/08/17 01:17:42;;;;;;;14.70;12.23;;;18.70;99.90;18.30;99982;;;;586445;241;24128;-87
2022/08/17 01:20:07;;;;;;;15.67;12.87;;;18.70;99.90;18.30;99986;;;;595149;241;24052;-84
2022/08/17 01:22:35;;;;;;;20.40;13.83;;;18.70;99.90;18.30;99990;;;;586103;241;24061;-86
2022/08/17 01:25:03;;;;;;;15.53;13.10;;;18.70;99.90;18.30;99990;;;;593070;241;24055;-86
2022/08/17 01:27:31;;;;;;;17.27;14.03;;;18.70;99.90;18.30;99988;;;;586164;241;24114;-87
2022/08/17 01:29:59;;;;;;;20.27;14.83;;;18.70;99.90;18.30;99987;;;;592838;238;24056;-88
2022/08/17 01:32:30;;;;;;;17.43;14.87;;;18.70;99.90;18.30;99982;;;;585475;241;24066;-87
2022/08/17 01:34:55;;;;;;;21.20;16.27;;;18.70;99.90;18.40;99985;;;;564620;250;24115;-87
2022/08/17 01:37:23;;;;;;;17.03;13.77;;;18.80;99.90;18.40;99982;;;;564675;250;24112;-86
2022/08/17 01:39:54;;;;;;;15.83;13.80;;;18.80;99.90;18.40;99978;;;;584743;241;24091;-89
2022/08/17 01:42:43;;;;;;;19.13;14.33;;;18.80;99.90;18.50;99975;;;;585610;241;24079;-87
2022/08/17 01:45:19;;;;;;;22.50;13.87;;;18.90;99.90;18.50;99973;;;;585596;241;24073;-87
2022/08/17 01:47:47;;;;;;;18.30;13.53;;;18.90;99.90;18.50;99976;;;;575140;245;24082;-87
2022/08/17 01:50:17;;;;;;;14.70;13.13;;;18.90;99.90;18.50;99974;;;;564504;250;24134;-87
2022/08/17 01:52:45;;;;;;;14.70;13.27;;;18.90;99.90;18.50;99971;;;;564653;245;24108;-87
2022/08/17 01:55:13;;;;;;;14.70;12.87;;;18.90;99.90;18.50;99968;;;;573159;245;24100;-86
2022/08/17 01:57:44;;;;;;;14.40;12.87;;;18.90;99.90;18.60;99971;;;;585558;241;24082;-87
2022/08/17 02:00:09;;;;;;;13.73;12.37;;;18.90;99.90;18.60;99975;;;;592408;241;24087;-87
2022/08/17 02:02:40;;;;;;;14.70;12.70;;;19.00;99.90;18.60;99978;;;;585621;241;24061;-87
2022/08/17 02:05:05;;;;;;;15.37;12.97;;;19.00;99.90;18.60;99972;;;;584841;241;24112;-85
2022/08/17 02:07:35;;;;;;;13.33;11.70;;;19.00;99.90;18.60;99972;;;;585139;241;24089;-84
2022/08/17 02:10:01;;;;;;;12.93;11.57;;;19.00;99.90;18.70;99977;;;;592175;241;24065;-85
2022/08/17 02:12:29;;;;;;;13.20;11.93;;;19.10;99.90;18.60;99979;;;;592141;241;24056;-85
2022/08/17 02:14:57;;;;;;;13.73;12.23;;;19.10;99.90;18.60;99980;;;;592256;238;24098;-85
2022/08/17 02:17:25;;;;;;;13.43;11.87;;;19.10;99.90;18.60;99979;;;;585624;241;24059;-84
2022/08/17 02:19:53;;;;;;;14.17;12.23;;;19.00;99.90;18.60;99978;;;;585152;241;24124;-84
2022/08/17 02:22:24;;;;;;;16.03;12.07;;;19.10;99.90;18.60;99977;;;;592991;240;24044;-86
2022/08/17 02:24:49;;;;;;;13.73;12.27;;;19.00;99.90;18.60;99978;;;;592883;241;24126;-85
2022/08/17 02:27:17;;;;;;;14.80;11.53;;;19.00;99.90;18.60;99968;;;;593224;241;24064;-86
2022/08/17 02:29:46;;;;;;;18.63;12.63;;;19.00;99.90;18.60;99969;;;;593029;241;24049;-87
2022/08/17 02:32:20;;;;;;;15.53;11.83;;;18.90;99.90;18.50;99970;;;;592926;241;25103;-88
2022/08/17 02:34:46;;;;;;;16.00;11.77;;;18.90;99.90;18.50;99966;;;;573026;246;24182;-86
2022/08/17 02:37:16;;;;;;;15.20;12.13;;;18.90;99.90;18.50;99962;;;;575210;245;24216;-87
2022/08/17 02:39:41;;;;;;;14.63;11.77;;;18.90;99.90;18.40;99958;;;;564857;250;24107;-87
2022/08/17 02:42:10;;;;;;;13.40;12.00;;;18.80;99.90;18.40;99966;;;;585497;241;24074;-86
2022/08/17 02:44:38;;;;;;;14.90;11.23;;;18.70;99.90;18.30;99960;;;;585656;241;24081;-87
2022/08/17 02:47:07;;;;;;;13.17;11.80;;;18.70;99.90;18.30;99964;;;;585516;241;24053;-85
2022/08/17 02:49:35;;;;;;;15.80;12.07;;;18.70;99.90;18.30;99966;;;;585647;241;23068;-87
2022/08/17 02:52:06;;;;;;;13.53;12.13;;;18.70;99.90;18.20;99960;;;;585594;241;24091;-86
2022/08/17 02:54:38;;;;;;;14.10;11.97;;;18.60;99.90;18.20;99955;;;;585280;241;24076;-85
2022/08/17 02:57:02;;;;;;;15.93;12.13;;;18.60;99.90;18.20;99961;;;;564533;250;24149;-86
2022/08/17 02:59:31;;;;;;;13.40;11.97;;;18.50;99.90;18.20;99961;;;;564339;250;24098;-86
2022/08/17 03:01:59;;;;;;;14.43;12.50;;;18.50;99.90;18.10;99962;;;;585320;241;24051;-87
2022/08/17 03:04:27;;;;;;;16.00;12.70;;;18.50;99.90;18.10;99966;;;;592124;241;24038;-84
2022/08/17 03:06:55;;;;;;;15.00;12.20;;;18.50;99.90;18.10;99969;;;;592251;241;24043;-83
2022/08/17 03:09:23;;;;;;;14.90;12.93;;;18.50;99.90;18.10;99975;;;;592162;241;24051;-86
2022/08/17 03:11:51;;;;;;;13.33;11.93;;;18.50;99.90;18.10;99976;;;;592072;241;24055;-86
2022/08/17 03:14:19;;;;;;;14.07;12.63;;;18.40;99.90;18.00;99971;;;;592245;241;24092;-86
2022/08/17 03:16:46;;;;;;;15.20;12.57;;;18.40;99.90;18.10;99977;;;;592506;241;24093;-87
2022/08/17 03:19:14;;;;;;;13.60;12.20;;;18.40;99.90;18.00;99964;;;;592558;241;24075;-86
2022/08/17 03:21:43;;;;;;;16.07;12.43;;;18.40;99.90;18.00;99974;;;;585245;241;24044;-87
2022/08/17 03:24:14;;;;;;;16.10;13.53;;;18.40;99.90;18.00;99968;;;;592037;238;24113;-87
2022/08/17 03:26:41;;;;;;;13.17;11.77;;;18.40;99.90;18.00;99966;;;;592201;238;24060;-87
2022/08/17 03:29:09;;;;;;;15.50;12.53;;;18.40;99.90;18.00;99970;;;;592070;241;24067;-87
2022/08/17 03:31:37;;;;;;;17.73;13.43;;;18.40;99.90;18.00;99972;;;;592157;238;24077;-86
2022/08/17 03:34:05;;;;;;;13.97;12.57;;;18.40;99.90;18.00;99974;;;;593041;240;24036;-89
2022/08/17 03:36:33;;;;;;;12.90;11.43;;;18.40;99.90;18.00;99968;;;;593553;241;24050;-88
2022/08/17 03:39:01;;;;;;;13.30;11.87;;;18.40;99.90;18.00;99982;;;;593189;238;24059;-88
2022/08/17 03:41:29;;;;;;;18.07;11.80;;;18.40;99.90;18.00;99982;;;;592952;241;24058;-88
2022/08/17 03:43:57;;;;;;;16.63;11.67;;;18.40;99.90;18.10;99982;;;;592886;238;24054;-87
2022/08/17 03:57:32;;;;;;;13.83;12.33;;;18.40;99.90;18.10;99982;;;;564707;250;24120;-87
2022/08/17 03:59:57;;;;;;;14.33;12.90;;;18.50;99.90;18.10;99988;;;;585114;241;24051;-86
2022/08/17 04:02:28;;;;;;;14.53;12.67;;;18.50;99.90;18.10;99988;;;;592486;241;24093;-88
2022/08/17 04:04:56;;;;;;;14.67;12.30;;;18.50;99.90;18.10;99988;;;;584653;241;24051;-87
2022/08/17 04:07:24;;;;;;;14.30;11.80;;;18.50;99.90;18.20;99991;;;;584130;244;24110;-87
2022/08/17 04:09:52;;;;;;;15.37;12.27;;;18.50;99.90;18.20;99989;;;;564949;250;24117;-88
2022/08/17 04:12:23;;;;;;;17.30;10.97;;;18.60;99.90;18.20;99994;;;;564779;250;24111;-86
2022/08/17 04:14:48;;;;;;;13.97;12.07;;;18.60;99.90;18.30;99990;;;;585461;241;24047;-86
2022/08/17 04:17:16;;;;;;;13.93;11.93;;;18.60;99.90;18.30;99997;;;;592635;241;24140;-84
2022/08/17 04:19:44;;;;;;;12.90;11.60;;;18.70;99.90;18.40;99999;;;;592547;241;24066;-86
2022/08/17 04:22:12;;;;;;;13.63;11.73;;;18.80;99.90;18.50;99996;;;;592567;241;24042;-87
2022/08/17 04:24:40;;;;;;;14.50;12.90;;;18.80;99.90;18.50;99994;;;;585343;241;24051;-85
2022/08/17 04:27:08;;;;;;;13.73;11.77;;;18.90;99.90;18.60;99998;;;;585441;241;24049;-87
2022/08/17 04:29:36;;;;;;;12.83;11.53;;;19.00;99.90;18.70;99991;;;;592442;241;24086;-86
2022/08/17 04:32:04;;;;;;;13.50;12.10;;;19.10;99.90;18.80;99992;;;;585517;241;24081;-87
2022/08/17 04:34:33;;;;;;;14.20;11.70;;;19.30;99.90;18.90;100001;;;;585235;241;24080;-86
2022/08/17 04:37:01;;;;;;;11.57;10.43;;;19.50;99.90;19.10;99998;;;;564890;250;24139;-86
2022/08/17 04:39:30;;;;;;;15.47;11.17;;;19.40;99.90;19.70;100005;;;;564360;250;24127;-85
2022/08/17 04:42:07;;;;;;;11.43;10.03;;;19.90;99.90;20.70;100005;;;;585202;241;24050;-83
2022/08/17 04:44:34;;;;;;;11.17;10.03;;;20.80;99.90;21.80;100014;;;;564843;248;24147;-86
2022/08/17 04:47:02;;;;;;;10.40;9.13;;;22.00;99.90;22.80;100014;;;;565945;249;24100;-86
2022/08/17 04:49:31;;;;;;;9.43;8.53;;;23.10;99.90;23.60;100015;;;;586299;241;24113;-84
2022/08/17 04:51:58;;;;;;;9.40;8.57;;;24.00;99.90;24.20;100011;;;;574139;249;24167;-86
2022/08/17 04:54:29;;;;;;;10.20;9.30;;;24.60;99.90;24.80;100008;;;;582589;246;24159;-86
2022/08/17 04:56:54;;;;;;;10.63;8.27;;;25.20;99.90;25.50;100014;;;;574669;249;23127;-85
2022/08/17 04:59:22;;;;;;;10.50;9.00;;;25.90;99.90;26.00;100015;;;;565729;250;23127;-84
2022/08/17 05:01:50;;;;;;;10.17;9.07;;;26.50;99.90;26.10;100017;;;;575965;245;24133;-83
2022/08/17 05:04:17;;;;;;;9.27;8.27;;;26.70;99.90;26.30;100011;;;;584422;245;23087;-86
2022/08/17 05:06:45;;;;;;;9.03;8.23;;;26.70;99.90;26.20;100008;;;;564731;250;23127;-85
2022/08/17 05:09:14;;;;;;;9.80;8.80;;;26.50;99.90;25.90;100014;;;;585613;241;23085;-87
2022/08/17 05:11:43;;;;;;;8.33;7.43;;;26.20;99.90;25.60;100006;;;;575308;245;24095;-85
2022/08/17 05:14:11;;;;;;;8.37;7.57;;;25.80;99.90;25.30;100002;;;;564660;250;23140;-87
2022/08/17 05:16:39;;;;;;;9.13;8.17;;;25.80;99.90;25.10;100005;;;;585664;241;23063;-85
2022/08/17 05:19:07;;;;;;;9.20;8.30;;;25.60;99.90;25.00;100016;;;;574118;249;24170;-84
2022/08/17 05:21:35;;;;;;;9.50;8.80;;;25.50;99.90;24.90;100014;;;;581389;246;23097;-86
2022/08/17 05:24:03;;;;;;;9.37;8.47;;;25.30;99.90;24.90;100013;;;;565051;250;23130;-86
2022/08/17 05:26:31;;;;;;;8.97;8.17;;;25.30;99.90;24.70;100025;;;;585304;241;23059;-84
2022/08/17 05:29:02;;;;;;;9.73;8.77;;;25.10;99.90;24.60;100030;;;;573524;249;23143;-83
2022/08/17 05:31:30;;;;;;;11.07;8.63;;;25.00;99.90;24.50;100028;;;;573973;246;23136;-81
2022/08/17 05:33:55;;;;;;;10.43;8.80;;;24.90;99.90;24.40;100028;;;;573167;246;23135;-83
2022/08/17 05:36:23;;;;;;;11.57;8.90;;;24.70;99.90;24.30;100035;;;;564370;250;23124;-83
2022/08/17 05:38:52;;;;;;;12.00;8.97;;;24.60;99.90;24.20;100035;;;;575008;245;24092;-82
2022/08/17 05:41:25;;;;;;;11.53;9.10;;;24.50;99.90;24.10;100043;;;;564868;250;24108;-85
2022/08/17 05:43:49;;;;;;;14.20;9.60;;;24.50;99.90;24.10;100041;;;;585298;241;23163;-87
2022/08/17 05:46:23;;;;;;;15.57;9.73;;;24.40;99.90;24.10;100049;;;;573565;245;23227;-84
2022/08/17 05:48:51;;;;;;;16.00;10.10;;;24.40;99.90;24.10;100050;;;;574203;246;24088;-83
2022/08/17 05:51:54;;;;;;;13.03;9.50;;;24.40;99.90;24.00;100050;;;;564886;246;23140;-87
2022/08/17 05:54:38;;;;;;;13.87;10.27;;;24.40;99.90;24.10;100049;;;;585910;241;23090;-87
2022/08/17 05:57:18;;;;;;;12.63;10.03;;;24.40;99.90;24.10;100052;;;;594365;240;24115;-87
2022/08/17 06:00:10;;;;;;;12.50;9.90;;;24.40;99.90;24.20;100056;;;;594647;241;24093;-87
2022/08/17 06:02:41;;;;;;;13.80;10.70;;;24.50;99.90;24.30;100055;;;;566203;245;23114;-87
2022/08/17 06:05:42;;;;;;;11.03;9.30;;;24.50;99.90;24.40;100061;;;;564304;250;23137;-82
2022/08/17 06:08:25;;;;;;;15.17;9.63;;;24.70;99.90;24.70;100056;;;;585385;241;23091;-83
2022/08/17 06:11:02;;;;;;;16.43;9.87;;;24.80;99.90;25.50;100063;;;;575605;245;24094;-84
2022/08/17 06:14:03;;;;;;;15.00;9.37;;;25.50;99.90;26.60;100060;;;;564865;250;23137;-87
2022/08/17 06:16:35;;;;;;;12.83;8.53;;;27.60;99.90;27.60;100062;;;;585463;241;23072;-83
2022/08/17 06:19:02;;;;;;;11.37;8.77;;;27.60;99.90;28.00;100059;;;;585875;241;23074;-86
2022/08/17 06:21:30;;;;;;;14.63;8.87;;;28.20;99.90;28.30;100064;;;;574529;245;23121;-82
2022/08/17 06:24:38;;;;;;;11.00;8.97;;;28.50;99.90;28.50;100063;;;;564089;250;23161;-82
2022/08/17 06:27:17;;;;;;;14.07;7.85;;;28.80;99.90;28.80;100073;;;;583176;241;23069;-86
2022/08/17 06:29:57;;;;;;;9.13;8.15;;;29.10;99.90;29.00;100080;;;;585012;241;23069;-81
2022/08/17 06:32:28;;;;;;;14.90;10.50;;;29.30;99.90;29.30;100073;;;;575173;245;23098;-81
2022/08/17 06:34:56;;;;;;;12.70;8.80;;;29.60;99.90;29.50;100074;;;;564026;250;23130;-80
2022/08/17 06:37:47;;;;;;;8.30;7.10;;;29.80;99.90;29.70;100078;;;;584694;241;23096;-86
2022/08/17 06:40:50;;;;;;;7.28;6.00;;;30.70;99.90;30.60;100089;;;;585579;241;23061;-87
2022/08/17 06:43:55;;;;;;;6.97;5.50;;;30.60;99.90;33.10;100090;;;;585683;241;24106;-87
2022/08/17 06:46:45;;;;;;;6.82;5.78;;;32.80;99.90;35.90;100084;;;;585454;241;23073;-85
2022/08/17 06:49:14;;;;;;;5.68;5.18;;;35.50;98.50;38.20;100093;;;;564615;250;24143;-87
2022/08/17 06:51:51;;;;;;;6.78;6.18;;;39.50;77.30;39.80;100089;;;;563820;250;23133;-86
2022/08/17 06:54:25;;;;;;;7.45;5.37;;;39.40;77.10;41.00;100088;;;;585000;241;23103;-86
2022/08/17 06:56:58;;;;;;;6.22;5.10;;;40.90;69.40;42.10;100087;;;;573576;245;23123;-85
2022/08/17 06:59:30;;;;;;;5.43;4.95;;;42.00;63.50;42.70;100092;;;;564487;250;23154;-87
2022/08/17 07:01:57;;;;;;;5.25;4.78;;;42.70;59.10;43.20;100093;;;;558145;250;23124;-84
2022/08/17 07:04:25;;;;;;;5.28;4.97;;;44.10;54.30;44.10;100097;;;;576562;244;23095;-84
2022/08/17 07:06:56;;;;;;;7.45;5.32;;;44.50;52.60;44.40;100103;;;;585077;241;23123;-86
2022/08/17 07:09:33;;;;;;;5.32;4.90;;;44.40;52.50;44.30;100098;;;;586097;240;23103;-84
2022/08/17 07:12:19;;;;;;;5.32;4.85;;;44.50;51.30;44.50;100098;;;;576444;244;23176;-83
2022/08/17 07:14:52;;;;;;;8.43;5.82;;;44.60;51.00;45.20;100105;;;;564994;250;23142;-83
2022/08/17 07:17:21;;;;;;;7.70;5.15;;;45.90;49.90;46.00;100104;;;;585847;241;23130;-83
2022/08/17 07:19:49;;;;;;;8.95;5.55;;;45.80;49.80;46.40;100105;;;;586073;241;23099;-86
2022/08/17 07:22:23;;;;;;;6.87;5.07;;;46.40;47.60;46.40;100114;;;;586074;241;23090;-86
2022/08/17 07:24:58;;;;;;;7.40;5.20;;;46.40;46.90;46.40;100120;;;;575646;245;23132;-83
2022/08/17 07:27:23;;;;;;;5.43;4.80;;;46.60;46.20;46.60;100115;;;;564674;250;23137;-85
2022/08/17 07:30:06;;;;;;;4.85;4.40;;;46.60;46.10;46.80;100118;;;;585597;241;23066;-86
2022/08/17 07:32:37;;;;;;;4.43;4.12;;;46.60;46.00;47.20;100126;;;;585456;241;23083;-84
2022/08/17 07:35:10;;;;;;;4.53;4.18;;;47.10;45.60;47.60;100116;;;;582066;241;23064;-84
2022/08/17 07:37:51;;;;;;;5.85;3.90;;;47.40;45.10;48.00;100121;;;;585135;241;23076;-83
2022/08/17 07:40:21;;;;;;;4.90;4.47;;;48.20;43.90;48.40;100119;;;;564715;250;23125;-83
2022/08/17 07:43:19;;;;;;;3.90;3.70;;;48.10;43.90;48.90;100125;;;;574340;246;23121;-83
2022/08/17 07:48:37;;;;;;;4.10;3.90;;;49.30;41.20;49.30;100124;;;;585149;241;23178;-87
2022/08/17 07:51:29;;;;;;;4.50;3.95;;;49.30;41.20;49.40;100123;;;;585191;241;23078;-86
2022/08/17 07:54:00;;;;;;;4.00;3.70;;;49.30;41.30;49.90;100119;;;;565188;250;23149;-85
2022/08/17 07:56:34;;;;;;;4.25;3.95;;;49.70;41.00;49.90;100130;;;;567469;248;24204;-86
2022/08/17 07:59:17;;;;;;;4.15;3.80;;;50.00;41.00;50.20;100127;;;;563997;250;23125;-86
2022/08/17 08:01:47;;;;;;;4.55;4.15;;;50.00;40.20;50.50;100129;;;;585176;241;23067;-87
2022/08/17 08:04:18;;;;;;;4.78;4.20;;;50.30;40.20;50.70;100124;;;;574362;245;23199;-88
2022/08/17 08:06:51;;;;;;;4.40;4.07;;;50.60;39.50;50.70;100116;;;;564288;246;24178;-86
2022/08/17 08:09:33;;;;;;;6.65;4.80;;;50.60;39.40;50.80;100123;;;;564382;250;23130;-87
2022/08/17 08:12:01;;;;;;;4.30;4.10;;;50.80;39.70;51.00;100125;;;;594201;237;23094;-87
2022/08/17 08:14:32;;;;;;;7.37;4.60;;;51.00;39.00;51.30;100126;;;;584087;241;23067;-87
2022/08/17 08:17:02;;;;;;;10.88;4.80;;;51.20;38.70;51.00;100137;;;;574838;245;24159;-86
2022/08/17 08:19:30;;;;;;;4.70;4.37;;;51.20;38.40;50.70;100136;;;;564649;248;23125;-87
2022/08/17 08:22:10;;;;;;;4.07;3.87;;;50.90;39.60;50.80;100143;;;;586863;241;24137;-87
2022/08/17 08:25:33;;;;;;;7.93;4.80;;;50.90;39.10;51.20;100149;;;;575772;245;23101;-87
2022/08/17 08:28:07;;;;;;;5.22;4.47;;;51.20;38.80;51.40;100154;;;;585269;245;23131;-87
2022/08/17 08:30:35;;;;;;;34.10;6.62;;;51.30;38.40;51.60;100157;;;;574468;246;23128;-86
2022/08/17 08:33:33;;;;;;;5.32;4.82;;;51.70;38.60;52.20;100151;;;;574409;246;23121;-88
2022/08/17 08:36:37;;;;;;;6.97;4.78;;;52.20;37.40;52.20;100159;;;;574720;246;23163;-87
2022/08/17 08:39:03;;;;;;;8.13;5.28;;;52.70;36.60;52.60;100161;;;;574774;246;23138;-88
2022/08/17 08:41:49;;;;;;;5.30;4.90;;;52.70;36.60;51.70;100173;;;;574252;245;23210;-88
2022/08/17 08:44:53;;;;;;;6.93;5.03;;;52.60;36.40;51.10;100168;;;;573504;246;23108;-86
2022/08/17 08:47:43;;;;;;;5.70;5.30;;;52.00;37.40;50.90;100165;;;;570412;246;23189;-86
2022/08/17 08:50:36;;;;;;;6.05;5.00;;;51.60;37.40;49.80;100170;;;;574822;245;23131;-85
2022/08/17 08:53:36;;;;;;;5.62;5.12;;;51.10;37.40;48.80;100171;;;;574796;246;23110;-87
2022/08/17 08:56:16;;;;;;;5.43;5.00;;;50.20;38.20;47.90;100172;;;;574721;246;24130;-87
2022/08/17 08:58:58;;;;;;;4.95;4.65;;;49.40;38.80;47.10;100169;;;;573976;246;23117;-87
2022/08/17 09:01:36;;;;;;;5.40;4.95;;;48.70;39.40;46.90;100177;;;;573937;246;23098;-87
2022/08/17 09:04:40;;;;;;;9.90;4.90;;;48.20;40.50;47.40;100187;;;;572211;246;23100;-86
2022/08/17 09:07:20;;;;;;;5.90;4.65;;;48.30;40.40;47.90;100185;;;;574117;246;23100;-86
2022/08/17 09:10:09;;;;;;;4.80;4.47;;;48.40;40.80;48.30;100181;;;;573760;246;23092;-87
2022/08/17 09:12:40;;;;;;;8.30;5.45;;;48.80;40.40;48.90;100186;;;;573798;245;23142;-87
2022/08/17 09:15:20;;;;;;;5.68;4.40;;;49.60;39.30;49.00;100191;;;;574084;246;23116;-84
2022/08/17 09:18:00;;;;;;;5.12;4.70;;;49.60;39.30;49.00;100192;;;;574281;246;23098;-87
2022/08/17 09:20:31;;;;;;;5.10;4.70;;;49.50;39.20;48.80;100197;;;;574061;246;23097;-85
2022/08/17 09:23:07;;;;;;;5.12;4.82;;;49.50;39.30;48.50;100193;;;;573823;246;23113;-83
2022/08/17 09:25:47;;;;;;;5.18;4.68;;;49.30;39.80;48.50;100198;;;;574717;246;23136;-86
2022/08/17 09:28:20;;;;;;;5.28;4.87;;;49.40;39.20;48.50;100197;;;;573611;246;24126;-87
2022/08/17 09:30:51;;;;;;;5.18;4.75;;;49.40;39.10;48.20;100199;;;;573817;246;23089;-85
2022/08/17 09:33:21;;;;;;;5.53;4.80;;;49.40;39.00;47.90;100193;;;;575834;245;23191;-86
2022/08/17 09:36:05;;;;;;;5.03;4.65;;;49.10;39.70;47.90;100186;;;;575249;245;23100;-86
2022/08/17 09:38:55;;;;;;;4.93;4.62;;;48.90;40.40;48.30;100192;;;;574890;245;23112;-83
2022/08/17 09:41:38;;;;;;;4.40;4.10;;;49.20;39.50;48.40;100193;;;;574898;246;23076;-87
2022/08/17 09:44:40;;;;;;;4.75;4.35;;;49.80;39.00;48.70;100197;;;;574958;245;23084;-85
2022/08/17 09:47:17;;;;;;;5.62;4.82;;;49.70;38.90;49.00;100203;;;;575140;245;23100;-86
2022/08/17 09:49:46;;;;;;;5.43;4.80;;;50.50;38.60;49.60;100192;;;;582832;245;23111;-85
2022/08/17 09:52:20;;;;;;;5.07;4.78;;;51.00;37.90;49.90;100190;;;;574158;246;24163;-87
2022/08/17 09:54:48;;;;;;;4.55;4.18;;;51.00;37.80;49.70;100201;;;;573869;246;23100;-84
2022/08/17 09:57:21;;;;;;;4.95;4.65;;;51.10;37.50;49.60;100191;;;;574709;246;23099;-84
2022/08/17 10:00:12;;;;;;;4.68;4.43;;;50.50;37.50;48.80;100187;;;;569767;246;23123;-85
2022/08/17 10:02:57;;;;;;;5.40;4.90;;;50.50;37.50;47.70;100195;;;;574895;245;23110;-84
2022/08/17 10:05:46;;;;;;;7.00;4.93;;;49.80;38.10;47.20;100199;;;;574438;246;23121;-85
2022/08/17 10:08:57;;;;;;;7.43;5.20;;;49.00;39.30;47.80;100191;;;;574148;246;24183;-84
2022/08/17 10:14:53;;;;;;;5.28;4.87;;;49.40;38.70;47.70;100198;;;;559519;253;23232;-87
2022/08/17 10:17:20;;;;;;;6.30;5.28;;;49.20;39.10;46.90;100203;;;;592759;241;23131;-83
2022/08/17 10:19:48;;;;;;;5.20;4.90;;;48.70;39.20;45.70;100202;;;;584682;241;23109;-86
2022/08/17 10:27:47;;;;;;;6.60;4.60;;;46.30;42.00;43.20;100207;;;;564657;249;23110;-86
2022/08/17 10:30:13;;;;;;;29.17;7.47;;;44.30;44.10;42.10;100207;;;;585083;241;23304;-85
2022/08/17 10:32:44;;;;;;;5.50;5.18;;;43.20;45.30;41.00;100204;;;;584962;241;23099;-86
2022/08/17 10:35:18;;;;;;;58.60;10.23;;;43.20;45.30;39.60;100214;;;;585035;241;23106;-85
2022/08/17 10:38:32;;;;;;;5.70;5.20;;;42.00;47.10;38.70;100212;;;;585067;241;23139;-85
2022/08/17 10:41:24;;;;;;;6.12;5.57;;;41.00;48.20;37.50;100208;;;;584500;241;23071;-86
2022/08/17 10:44:04;;;;;;;11.40;6.35;;;39.80;49.90;36.30;100207;;;;586109;240;23097;-86
2022/08/17 10:46:51;;;;;;;5.85;5.37;;;38.50;51.80;35.40;100199;;;;586338;241;23127;-85
2022/08/17 10:49:22;;;;;;;10.93;5.87;;;36.00;56.30;34.30;100202;;;;575194;245;24177;-84
2022/08/17 10:51:53;;;;;;;25.30;6.20;;;35.90;56.30;33.50;100198;;;;573672;250;23133;-85
2022/08/17 10:54:45;;;;;;;6.47;4.90;;;34.90;58.20;32.80;100201;;;;585381;241;23088;-85
2022/08/17 10:57:33;;;;;;;12.93;6.40;;;34.00;60.30;31.90;100206;;;;580554;241;37168;-85
2022/08/17 11:00:13;;;;;;;11.43;5.93;;;32.90;63.50;31.10;100207;;;;580349;241;23080;-83
2022/08/17 11:02:59;;;;;;;5.85;5.28;;;31.90;66.00;30.50;100198;;;;585841;241;23074;-82
2022/08/17 11:05:32;;;;;;;6.85;6.32;;;31.20;67.50;30.00;100207;;;;585239;241;23063;-83
2022/08/17 11:08:37;;;;;;;6.78;6.03;;;30.60;70.80;29.70;100195;;;;574784;245;23129;-84
2022/08/17 11:11:23;;;;;;;10.23;6.65;;;30.10;73.10;29.30;100195;;;;564426;250;24160;-84
2022/08/17 11:14:22;;;;;;;6.37;5.77;;;29.70;75.00;29.00;100203;;;;594424;241;23060;-85
2022/08/17 11:17:04;;;;;;;18.93;7.80;;;29.40;76.60;28.80;100197;;;;585295;241;24094;-85
2022/08/17 11:20:05;;;;;;;19.80;10.90;;;29.10;78.40;28.60;100202;;;;585317;241;24120;-86
2022/08/17 11:22:35;;;;;;;9.80;7.13;;;28.90;79.30;28.40;100191;;;;585607;241;24105;-86
2022/08/17 11:25:15;;;;;;;14.30;6.93;;;28.70;81.50;28.20;100204;;;;585680;241;24080;-87
2022/08/17 11:27:45;;;;;;;9.27;6.87;;;28.50;82.80;28.00;100209;;;;575454;245;24139;-84
2022/08/17 11:30:11;;;;;;;8.03;6.67;;;28.40;84.20;27.90;100202;;;;564366;250;23152;-83
2022/08/17 11:32:45;;;;;;;6.87;6.27;;;28.10;86.20;27.80;100216;;;;585115;241;24195;-84
2022/08/17 11:35:23;;;;;;;6.80;6.30;;;28.10;86.20;27.70;100208;;;;585640;241;23151;-83
2022/08/17 11:38:17;;;;;;;7.47;6.70;;;28.00;87.10;27.60;100204;;;;585387;241;23132;-84
2022/08/17 11:40:51;;;;;;;12.90;7.00;;;27.90;88.80;27.50;100203;;;;585620;241;23080;-83
2022/08/17 11:43:43;;;;;;;9.40;6.97;;;27.80;90.40;27.40;100199;;;;582969;245;24140;-85
2022/08/17 11:46:23;;;;;;;7.43;6.73;;;27.80;91.00;27.30;100201;;;;563861;250;23129;-84
2022/08/17 11:51:59;;;;;;;7.20;6.60;;;27.60;92.40;27.20;100191;;;;575173;245;23169;-85
2022/08/17 11:54:31;;;;;;;8.70;6.93;;;27.60;93.70;27.20;100191;;;;573113;246;23158;-85
2022/08/17 11:56:58;;;;;;;8.73;5.63;;;27.50;94.10;27.20;100191;;;;586384;241;23216;-85
2022/08/17 11:59:32;;;;;;;7.20;6.60;;;27.50;94.20;27.20;100193;;;;585989;241;23091;-82
2022/08/17 12:02:03;;;;;;;7.03;6.33;;;27.60;94.40;27.20;100192;;;;586016;241;23051;-83